createdAt,value
2018-08-14T00:00:34.220Z,93.30
2018-08-14T00:03:13.897Z,93.30
2018-08-14T00:05:48.928Z,93.50
2018-08-14T00:08:23.213Z,93.50
2018-08-14T00:10:57.519Z,93.50
2018-08-14T00:13:31.844Z,93.60
2018-08-14T00:16:06.074Z,93.50
2018-08-14T00:18:40.294Z,93.50
2018-08-14T00:21:14.585Z,93.40
2018-08-14T00:23:49.036Z,93.50
2018-08-14T00:26:23.331Z,93.40
2018-08-14T00:28:57.786Z,93.60
2018-08-14T00:31:32.066Z,93.80
2018-08-14T00:34:06.495Z,93.70
2018-08-14T00:36:40.762Z,93.60
2018-08-14T00:39:15.166Z,93.80
2018-08-14T00:41:49.647Z,93.90
2018-08-14T00:44:24.006Z,93.90
2018-08-14T00:46:58.365Z,94.00
2018-08-14T00:49:32.825Z,93.80
2018-08-14T00:52:07.316Z,93.80
2018-08-14T00:54:41.451Z,93.80
2018-08-14T00:57:15.660Z,94.00
2018-08-14T00:59:50.073Z,94.10
2018-08-14T01:02:24.426Z,94.10
2018-08-14T01:04:58.610Z,94.10
2018-08-14T01:07:32.901Z,94.50
2018-08-14T01:10:09.420Z,94.50
2018-08-14T01:12:46.847Z,94.50
2018-08-14T01:15:22.349Z,94.70
2018-08-14T01:17:57.168Z,94.80
2018-08-14T01:20:31.456Z,95.00
2018-08-14T01:23:05.773Z,94.90
2018-08-14T01:25:40.050Z,95.10
2018-08-14T01:28:14.418Z,94.80
2018-08-14T01:30:48.801Z,94.70
2018-08-14T01:33:23.099Z,94.80
2018-08-14T01:35:57.434Z,94.90
2018-08-14T01:38:31.702Z,95.10
2018-08-14T01:41:06.237Z,95.20
2018-08-14T01:43:40.458Z,95.40
2018-08-14T01:46:14.777Z,95.40
2018-08-14T01:48:48.969Z,95.80
2018-08-14T01:51:23.282Z,95.30
2018-08-14T01:53:57.686Z,95.50
2018-08-14T01:56:31.962Z,95.50
2018-08-14T01:59:06.882Z,95.50
2018-08-14T02:01:41.138Z,95.90
2018-08-14T02:04:15.322Z,95.80
2018-08-14T02:06:49.525Z,95.70
2018-08-14T02:09:23.814Z,95.80
2018-08-14T02:11:58.130Z,95.70
2018-08-14T02:14:32.306Z,95.40
2018-08-14T02:17:06.742Z,95.60
2018-08-14T02:19:40.972Z,95.80
2018-08-14T02:22:15.245Z,95.80
2018-08-14T02:24:49.577Z,95.70
2018-08-14T02:27:23.823Z,96.00
2018-08-14T02:29:58.153Z,95.70
2018-08-14T02:32:32.426Z,96.00
2018-08-14T02:35:07.723Z,96.00
2018-08-14T02:37:41.990Z,96.10
2018-08-14T02:40:18.890Z,96.00
2018-08-14T02:42:53.090Z,95.90
2018-08-14T02:45:27.427Z,96.00
2018-08-14T02:48:01.750Z,95.80
2018-08-14T02:50:35.989Z,95.70
2018-08-14T02:53:10.627Z,95.60
2018-08-14T02:55:45.007Z,95.70
2018-08-14T02:58:19.309Z,96.00
2018-08-14T03:00:53.693Z,96.10
2018-08-14T03:03:28.014Z,96.20
2018-08-14T03:06:02.367Z,96.20
2018-08-14T03:08:36.550Z,96.20
2018-08-14T03:11:10.791Z,96.00
2018-08-14T03:13:45.095Z,96.50
2018-08-14T03:16:19.302Z,96.50
2018-08-14T03:18:53.657Z,96.40
2018-08-14T03:21:27.982Z,96.40
2018-08-14T03:24:02.303Z,96.60
2018-08-14T03:26:36.605Z,96.60
2018-08-14T03:29:10.879Z,96.50
2018-08-14T03:31:45.085Z,96.50
2018-08-14T03:34:19.373Z,96.40
2018-08-14T03:36:53.681Z,96.60
2018-08-14T03:39:27.958Z,96.30
2018-08-14T03:42:02.326Z,96.40
2018-08-14T03:44:36.491Z,96.30
2018-08-14T03:47:10.786Z,96.20
2018-08-14T03:49:45.074Z,96.10
2018-08-14T03:52:19.522Z,96.10
2018-08-14T03:54:53.803Z,96.10
2018-08-14T03:57:28.054Z,96.20
2018-08-14T04:00:02.354Z,96.70
2018-08-14T04:02:36.806Z,96.90
2018-08-14T04:05:11.683Z,97.30
2018-08-14T04:07:45.977Z,97.40
2018-08-14T04:10:20.359Z,97.60
2018-08-14T04:12:54.515Z,97.70
2018-08-14T04:15:28.857Z,97.80
2018-08-14T04:18:08.898Z,97.80
2018-08-14T04:20:43.090Z,98.00
2018-08-14T04:23:17.545Z,97.70
2018-08-14T04:25:51.885Z,98.00
2018-08-14T04:28:26.061Z,97.90
2018-08-14T04:31:00.338Z,97.80
2018-08-14T04:33:34.632Z,97.70
2018-08-14T04:36:08.961Z,97.70
2018-08-14T04:38:43.250Z,98.00
2018-08-14T04:41:17.611Z,98.00
2018-08-14T04:43:52.178Z,97.90
2018-08-14T04:46:26.562Z,98.30
2018-08-14T04:49:00.839Z,98.00
2018-08-14T04:51:35.181Z,98.00
2018-08-14T04:54:09.519Z,98.20
2018-08-14T04:56:43.978Z,98.10
2018-08-14T04:59:18.150Z,97.90
2018-08-14T05:01:52.434Z,98.00
2018-08-14T05:04:26.707Z,97.90
2018-08-14T05:07:00.998Z,97.90
2018-08-14T05:09:35.295Z,97.80
2018-08-14T05:12:09.708Z,97.90
2018-08-14T05:14:44.170Z,97.90
2018-08-14T05:17:18.369Z,97.90
2018-08-14T05:19:52.782Z,97.60
2018-08-14T05:22:27.106Z,97.40
2018-08-14T05:25:01.396Z,97.30
2018-08-14T05:27:35.894Z,97.30
2018-08-14T05:30:11.742Z,96.80
2018-08-14T05:32:47.099Z,96.80
2018-08-14T05:35:21.377Z,96.80
2018-08-14T05:37:55.722Z,96.60
2018-08-14T05:40:30.018Z,96.30
2018-08-14T05:43:04.357Z,96.40
2018-08-14T05:45:38.714Z,96.10
2018-08-14T05:48:13.025Z,96.20
2018-08-14T05:50:47.325Z,96.10
2018-08-14T05:53:21.601Z,96.10
2018-08-14T05:55:55.802Z,96.10
2018-08-14T05:58:30.197Z,95.80
2018-08-14T06:01:05.302Z,96.00
2018-08-14T06:03:39.734Z,95.90
2018-08-14T06:06:14.098Z,96.10
2018-08-14T06:08:48.289Z,95.90
2018-08-14T06:11:22.537Z,95.80
2018-08-14T06:13:56.981Z,95.80
2018-08-14T06:16:31.183Z,95.80
2018-08-14T06:19:05.772Z,95.40
2018-08-14T06:21:40.138Z,95.30
2018-08-14T06:24:14.478Z,95.60
2018-08-14T06:26:48.701Z,95.40
2018-08-14T06:29:22.982Z,95.40
2018-08-14T06:31:57.345Z,95.10
2018-08-14T06:34:31.845Z,95.30
2018-08-14T06:37:06.098Z,95.70
2018-08-14T06:39:40.389Z,95.00
2018-08-14T06:42:14.722Z,95.20
2018-08-14T06:44:49.025Z,95.10
2018-08-14T06:47:23.333Z,95.10
2018-08-14T06:49:57.597Z,94.90
2018-08-14T06:52:32.033Z,95.10
2018-08-14T06:55:06.899Z,95.10
2018-08-14T06:57:42.661Z,95.00
2018-08-14T07:00:18.605Z,95.10
2018-08-14T07:02:52.913Z,95.00
2018-08-14T07:05:27.190Z,95.00
2018-08-14T07:08:01.473Z,95.50
2018-08-14T07:10:35.789Z,95.60
2018-08-14T07:13:10.075Z,95.70
2018-08-14T07:15:44.273Z,95.60
2018-08-14T07:18:18.617Z,95.20
2018-08-14T07:20:52.859Z,95.20
2018-08-14T07:23:27.126Z,95.40
2018-08-14T07:26:01.371Z,95.20
2018-08-14T07:28:35.698Z,95.70
2018-08-14T07:31:09.965Z,95.70
2018-08-14T07:33:44.261Z,95.50
2018-08-14T07:36:18.454Z,95.60
2018-08-14T07:38:52.973Z,95.60
2018-08-14T07:41:28.839Z,95.30
2018-08-14T07:44:03.176Z,95.30
2018-08-14T07:46:37.537Z,95.10
2018-08-14T07:49:11.858Z,94.80
2018-08-14T07:51:46.170Z,94.60
2018-08-14T07:54:20.685Z,94.30
2018-08-14T07:56:55.046Z,94.20
2018-08-14T07:59:29.458Z,93.70
2018-08-14T08:02:03.658Z,93.50
2018-08-14T08:04:38.050Z,93.20
2018-08-14T08:07:12.318Z,93.20
2018-08-14T08:09:46.518Z,93.50
2018-08-14T08:12:20.876Z,93.10
2018-08-14T08:14:55.073Z,93.20
2018-08-14T08:17:29.384Z,92.70
2018-08-14T08:20:05.331Z,92.90
2018-08-14T08:22:39.715Z,92.70
2018-08-14T08:25:14.265Z,92.60
2018-08-14T08:27:48.530Z,92.80
2018-08-14T08:30:22.861Z,93.50
2018-08-14T08:32:57.130Z,94.70
2018-08-14T08:35:31.461Z,95.60
2018-08-14T08:38:05.809Z,96.50
2018-08-14T08:40:39.978Z,96.90
2018-08-14T08:43:14.353Z,96.80
2018-08-14T08:45:48.566Z,97.10
2018-08-14T08:48:23.238Z,97.10
2018-08-14T08:50:57.520Z,97.10
2018-08-14T08:53:31.817Z,97.10
2018-08-14T08:56:06.182Z,96.60
2018-08-14T08:58:40.421Z,96.40
2018-08-14T09:01:14.623Z,97.60
2018-08-14T09:03:48.954Z,97.80
2018-08-14T09:06:23.166Z,98.90
2018-08-14T09:08:57.358Z,98.80
2018-08-14T09:11:31.598Z,98.70
2018-08-14T09:14:06.385Z,98.80
2018-08-14T09:16:40.761Z,98.50
2018-08-14T09:19:15.126Z,99.10
2018-08-14T09:21:49.314Z,97.90
2018-08-14T09:24:23.530Z,98.50
2018-08-14T09:26:57.858Z,98.00
2018-08-14T09:29:32.126Z,98.30
2018-08-14T09:32:06.435Z,98.00
2018-08-14T09:34:40.658Z,97.70
2018-08-14T09:37:14.942Z,97.30
2018-08-14T09:39:49.137Z,96.70
2018-08-14T09:42:23.398Z,96.60
2018-08-14T09:44:57.661Z,96.00
2018-08-14T09:47:31.826Z,95.80
2018-08-14T09:50:10.738Z,96.10
2018-08-14T09:52:45.781Z,95.50
2018-08-14T09:55:20.670Z,95.50
2018-08-14T09:57:55.002Z,94.30
2018-08-14T10:00:34.627Z,94.30
2018-08-14T10:03:18.461Z,94.10
2018-08-14T10:05:58.074Z,93.80
2018-08-14T10:08:32.265Z,93.30
2018-08-14T10:11:06.490Z,91.80
2018-08-14T10:13:40.774Z,91.80
2018-08-14T10:16:15.077Z,91.90
2018-08-14T10:18:49.250Z,92.10
2018-08-14T10:21:23.577Z,92.10
2018-08-14T10:23:57.921Z,92.30
2018-08-14T10:26:32.269Z,91.10
2018-08-14T10:29:06.563Z,91.10
2018-08-14T10:31:40.909Z,90.80
2018-08-14T10:34:15.184Z,90.80
2018-08-14T10:36:49.490Z,90.20
2018-08-14T10:39:23.734Z,88.00
2018-08-14T10:41:58.129Z,86.80
2018-08-14T10:44:32.400Z,85.60
2018-08-14T10:47:06.677Z,86.50
2018-08-14T10:49:40.893Z,85.50
2018-08-14T10:52:15.194Z,87.30
2018-08-14T10:54:49.429Z,86.50
2018-08-14T10:57:23.862Z,87.40
2018-08-14T10:59:58.050Z,87.30
2018-08-14T11:02:32.314Z,88.20
2018-08-14T11:05:06.628Z,88.70
2018-08-14T11:07:41.789Z,89.40
2018-08-14T11:10:17.606Z,88.90
2018-08-14T11:12:51.762Z,87.50
2018-08-14T11:15:26.270Z,88.70
2018-08-14T11:18:00.578Z,90.80
2018-08-14T11:20:34.878Z,93.60
2018-08-14T11:23:09.252Z,95.60
2018-08-14T11:25:43.513Z,96.70
2018-08-14T11:28:17.881Z,96.80
2018-08-14T11:30:52.166Z,96.60
2018-08-14T11:33:26.447Z,97.00
2018-08-14T11:36:03.685Z,96.80
2018-08-14T11:38:37.991Z,96.80
2018-08-14T11:41:12.269Z,96.70
2018-08-14T11:43:46.450Z,95.90
2018-08-14T11:46:20.749Z,95.50
2018-08-14T11:48:55.070Z,95.60
2018-08-14T11:51:29.473Z,95.10
2018-08-14T11:54:03.962Z,94.80
2018-08-14T11:56:38.325Z,94.90
2018-08-14T11:59:12.630Z,94.60
2018-08-14T12:01:46.899Z,94.80
2018-08-14T12:04:21.142Z,95.10
2018-08-14T12:06:55.423Z,95.30
2018-08-14T12:09:29.610Z,96.60
2018-08-14T12:12:03.813Z,97.70
2018-08-14T12:14:38.181Z,98.20
2018-08-14T12:17:12.582Z,99.30
2018-08-14T12:19:46.849Z,99.00
2018-08-14T12:22:21.092Z,99.40
2018-08-14T12:24:55.369Z,99.30
2018-08-14T12:27:29.683Z,98.90
2018-08-14T12:30:04.818Z,98.90
2018-08-14T12:32:39.315Z,99.30
2018-08-14T12:35:13.686Z,99.90
2018-08-14T12:37:48.061Z,99.90
2018-08-14T12:40:22.301Z,99.90
2018-08-14T12:42:56.562Z,99.90
2018-08-14T12:45:30.869Z,99.90
2018-08-14T12:48:05.541Z,99.90
2018-08-14T12:50:39.826Z,99.90
2018-08-14T12:53:14.278Z,99.90
2018-08-14T12:55:48.523Z,99.90
2018-08-14T12:58:22.753Z,99.90
2018-08-14T13:00:57.043Z,99.90
2018-08-14T13:03:31.466Z,99.90
2018-08-14T13:06:05.887Z,99.90
2018-08-14T13:08:40.104Z,99.90
2018-08-14T13:11:14.356Z,99.90
2018-08-14T13:13:48.558Z,99.90
2018-08-14T13:16:22.865Z,98.70
2018-08-14T13:18:57.170Z,99.30
2018-08-14T13:21:31.479Z,99.60
2018-08-14T13:24:05.782Z,99.10
2018-08-14T13:26:40.111Z,98.20
2018-08-14T13:29:14.277Z,98.00
2018-08-14T13:31:48.615Z,97.90
2018-08-14T13:34:23.038Z,96.50
2018-08-14T13:36:57.323Z,95.00
2018-08-14T13:39:31.882Z,95.30
2018-08-14T13:42:06.382Z,94.00
2018-08-14T13:44:40.586Z,92.60
2018-08-14T13:47:14.865Z,92.00
2018-08-14T13:49:49.270Z,92.10
2018-08-14T13:52:23.706Z,90.70
2018-08-14T13:54:57.897Z,91.10
2018-08-14T13:57:32.146Z,89.00
2018-08-14T14:00:11.781Z,88.10
2018-08-14T14:02:46.250Z,86.00
2018-08-14T14:05:20.903Z,86.70
2018-08-14T14:07:55.173Z,88.30
2018-08-14T14:10:29.581Z,87.30
2018-08-14T14:13:03.870Z,86.20
2018-08-14T14:15:38.121Z,86.00
2018-08-14T14:18:12.423Z,86.40
2018-08-14T14:20:46.636Z,86.60
2018-08-14T14:23:20.971Z,87.00
2018-08-14T14:25:55.398Z,86.20
2018-08-14T14:28:29.837Z,85.70
2018-08-14T14:31:04.035Z,84.20
2018-08-14T14:33:38.338Z,82.70
2018-08-14T14:36:12.537Z,82.70
2018-08-14T14:38:46.661Z,82.50
2018-08-14T14:41:21.038Z,80.00
2018-08-14T14:43:55.321Z,80.30
2018-08-14T14:46:29.732Z,80.20
2018-08-14T14:49:04.041Z,78.00
2018-08-14T14:51:38.305Z,77.00
2018-08-14T14:54:12.595Z,76.00
2018-08-14T14:56:46.918Z,74.20
2018-08-14T14:59:21.286Z,75.00
2018-08-14T15:01:55.534Z,73.10
2018-08-14T15:04:29.746Z,74.40
2018-08-14T15:07:03.981Z,73.40
2018-08-14T15:09:38.386Z,72.90
2018-08-14T15:12:12.565Z,71.40
2018-08-14T15:14:46.860Z,71.20
2018-08-14T15:17:21.333Z,70.90
2018-08-14T15:19:55.460Z,71.40
2018-08-14T15:22:29.658Z,69.60
2018-08-14T15:25:04.490Z,67.80
2018-08-14T15:27:49.086Z,68.70
2018-08-14T15:30:23.453Z,69.10
2018-08-14T15:32:57.682Z,70.10
2018-08-14T15:35:31.906Z,70.30
2018-08-14T15:38:06.650Z,70.30
2018-08-14T15:40:40.933Z,70.30
2018-08-14T15:43:15.198Z,70.40
2018-08-14T15:45:49.693Z,70.40
2018-08-14T15:48:23.881Z,70.80
2018-08-14T15:50:58.180Z,70.40
2018-08-14T15:53:32.518Z,70.10
2018-08-14T15:56:06.871Z,70.20
2018-08-14T15:58:41.070Z,70.10
2018-08-14T16:01:15.474Z,70.40
2018-08-14T16:03:49.762Z,69.40
2018-08-14T16:06:24.004Z,69.60
2018-08-14T16:08:58.679Z,68.20
2018-08-14T16:11:32.918Z,67.80
2018-08-14T16:14:07.586Z,66.70
2018-08-14T16:16:41.950Z,67.70
2018-08-14T16:19:16.874Z,66.60
2018-08-14T16:21:51.197Z,65.20
2018-08-14T16:24:25.441Z,66.00
2018-08-14T16:26:59.717Z,65.70
2018-08-14T16:29:33.897Z,67.20
2018-08-14T16:32:08.458Z,66.70
2018-08-14T16:34:42.846Z,66.00
2018-08-14T16:37:17.149Z,66.20
2018-08-14T16:39:51.462Z,67.90
2018-08-14T16:42:25.761Z,67.90
2018-08-14T16:45:00.226Z,66.90
2018-08-14T16:47:34.590Z,67.60
2018-08-14T16:50:09.093Z,67.10
2018-08-14T16:52:43.409Z,67.30
2018-08-14T16:55:17.834Z,67.40
2018-08-14T16:57:52.369Z,67.80
2018-08-14T17:00:32.257Z,67.90
2018-08-14T17:03:07.600Z,67.00
2018-08-14T17:05:41.813Z,66.70
2018-08-14T17:08:16.010Z,66.00
2018-08-14T17:10:50.283Z,66.20
2018-08-14T17:13:24.634Z,66.50
2018-08-14T17:15:59.366Z,67.20
2018-08-14T17:18:33.559Z,67.20
2018-08-14T17:21:06.818Z,68.00
2018-08-14T17:23:41.181Z,68.10
2018-08-14T17:26:15.539Z,68.20
2018-08-14T17:28:49.856Z,68.50
2018-08-14T17:31:24.154Z,69.20
2018-08-14T17:33:58.465Z,68.50
2018-08-14T17:36:32.845Z,68.80
2018-08-14T17:39:07.776Z,69.00
2018-08-14T17:41:41.894Z,69.30
2018-08-14T17:44:16.221Z,69.80
2018-08-14T17:46:50.638Z,70.30
2018-08-14T17:49:24.926Z,70.90
2018-08-14T17:51:59.215Z,70.10
2018-08-14T17:54:33.797Z,71.40
2018-08-14T17:57:08.075Z,71.50
2018-08-14T17:59:42.290Z,72.20
2018-08-14T18:02:16.501Z,72.30
2018-08-14T18:04:51.039Z,72.40
2018-08-14T18:07:25.413Z,72.40
2018-08-14T18:09:59.734Z,72.00
2018-08-14T18:12:33.997Z,72.90
2018-08-14T18:15:10.397Z,73.10
2018-08-14T18:17:44.941Z,73.00
2018-08-14T18:20:22.302Z,73.10
2018-08-14T18:22:56.654Z,73.60
2018-08-14T18:25:30.949Z,73.60
2018-08-14T18:28:05.576Z,74.20
2018-08-14T18:30:39.766Z,74.10
2018-08-14T18:33:14.312Z,74.60
2018-08-14T18:35:48.684Z,75.00
2018-08-14T18:38:23.802Z,75.40
2018-08-14T18:40:58.164Z,75.50
2018-08-14T18:43:32.450Z,75.90
2018-08-14T18:46:06.906Z,75.80
2018-08-14T18:48:41.206Z,75.80
2018-08-14T18:51:15.509Z,76.30
2018-08-14T18:53:49.773Z,76.40
2018-08-14T18:56:24.398Z,76.00
2018-08-14T18:58:58.538Z,76.20
2018-08-14T19:01:32.925Z,76.40
2018-08-14T19:04:07.342Z,76.50
2018-08-14T19:06:41.507Z,76.30
2018-08-14T19:09:15.882Z,76.40
2018-08-14T19:11:50.054Z,76.40
2018-08-14T19:14:24.634Z,76.40
2018-08-14T19:16:58.926Z,77.10
2018-08-14T19:19:33.341Z,77.10
2018-08-14T19:22:07.788Z,77.00
2018-08-14T19:24:42.046Z,77.20
2018-08-14T19:27:16.303Z,77.20
2018-08-14T19:29:50.738Z,77.60
2018-08-14T19:32:25.057Z,77.70
2018-08-14T19:34:59.217Z,78.10
2018-08-14T19:37:34.783Z,78.00
2018-08-14T19:40:17.022Z,78.00
2018-08-14T19:42:51.593Z,78.50
2018-08-14T19:45:25.867Z,79.50
2018-08-14T19:48:00.246Z,79.70
2018-08-14T19:50:34.580Z,79.90
2018-08-14T19:53:08.961Z,80.50
2018-08-14T19:55:43.293Z,80.20
2018-08-14T19:58:17.554Z,80.20
2018-08-14T20:00:51.845Z,80.70
2018-08-14T20:03:26.270Z,81.00
2018-08-14T20:06:00.638Z,80.90
2018-08-14T20:08:34.881Z,81.00
2018-08-14T20:11:09.145Z,80.90
2018-08-14T20:13:43.606Z,80.90
2018-08-14T20:16:17.770Z,80.60
2018-08-14T20:18:52.114Z,82.20
2018-08-14T20:21:26.331Z,82.20
2018-08-14T20:24:00.678Z,83.00
2018-08-14T20:26:35.006Z,83.10
2018-08-14T20:29:09.432Z,83.40
2018-08-14T20:31:43.694Z,83.50
2018-08-14T20:34:17.853Z,83.50
2018-08-14T20:36:52.002Z,83.40
2018-08-14T20:39:26.494Z,84.00
2018-08-14T20:42:00.731Z,84.00
2018-08-14T20:44:35.277Z,83.80
2018-08-14T20:47:09.563Z,84.20
2018-08-14T20:49:43.869Z,84.10
2018-08-14T20:52:18.165Z,84.80
2018-08-14T20:54:52.570Z,84.50
2018-08-14T20:57:26.843Z,84.80
2018-08-14T21:00:01.178Z,84.80
2018-08-14T21:02:35.906Z,85.40
2018-08-14T21:05:10.337Z,85.40
2018-08-14T21:07:45.457Z,85.40
2018-08-14T21:10:19.642Z,85.80
2018-08-14T21:12:53.922Z,85.90
2018-08-14T21:15:33.465Z,85.90
2018-08-14T21:18:07.694Z,85.80
2018-08-14T21:20:41.967Z,85.90
2018-08-14T21:23:16.237Z,85.90
2018-08-14T21:25:50.651Z,86.20
2018-08-14T21:28:24.918Z,86.40
2018-08-14T21:30:59.313Z,86.20
2018-08-14T21:33:33.609Z,86.70
2018-08-14T21:36:07.856Z,87.20
2018-08-14T21:38:42.128Z,87.50
2018-08-14T21:41:16.446Z,88.20
2018-08-14T21:43:50.754Z,87.90
2018-08-14T21:46:25.074Z,88.40
2018-08-14T21:48:59.810Z,88.60
2018-08-14T21:51:34.013Z,88.70
2018-08-14T21:54:08.318Z,88.80
2018-08-14T21:56:42.622Z,88.80
2018-08-14T21:59:16.905Z,89.20
2018-08-14T22:01:51.247Z,89.50
2018-08-14T22:04:25.437Z,89.80
2018-08-14T22:06:59.733Z,89.40
2018-08-14T22:09:33.974Z,89.40
2018-08-14T22:12:08.494Z,88.80
2018-08-14T22:14:42.839Z,89.10
2018-08-14T22:17:17.207Z,88.60
2018-08-14T22:19:51.499Z,89.20
2018-08-14T22:22:25.775Z,89.30
2018-08-14T22:25:00.137Z,89.10
2018-08-14T22:27:34.457Z,89.00
2018-08-14T22:30:10.966Z,89.20
2018-08-14T22:32:45.421Z,89.30
2018-08-14T22:35:19.658Z,89.00
2018-08-14T22:37:53.809Z,89.00
2018-08-14T22:40:28.098Z,89.10
2018-08-14T22:43:02.396Z,88.80
2018-08-14T22:45:36.642Z,89.30
2018-08-14T22:48:10.967Z,89.00
2018-08-14T22:50:45.330Z,89.00
2018-08-14T22:53:19.661Z,89.00
2018-08-14T22:55:54.025Z,89.20
2018-08-14T22:58:28.194Z,89.10
2018-08-14T23:01:02.556Z,89.00
2018-08-14T23:03:36.783Z,89.30
2018-08-14T23:06:11.038Z,89.30
2018-08-14T23:08:45.305Z,89.70
2018-08-14T23:11:19.649Z,90.00
2018-08-14T23:13:53.961Z,90.00
2018-08-14T23:16:28.214Z,90.00
2018-08-14T23:19:02.600Z,90.00
2018-08-14T23:21:36.730Z,89.90
2018-08-14T23:24:11.107Z,89.60
2018-08-14T23:26:45.328Z,89.80
2018-08-14T23:29:19.698Z,90.00
2018-08-14T23:31:53.898Z,90.00
2018-08-14T23:34:28.255Z,89.90
2018-08-14T23:37:02.553Z,89.60
2018-08-14T23:39:36.821Z,90.00
2018-08-14T23:42:11.186Z,89.90
2018-08-14T23:44:45.493Z,90.00
2018-08-14T23:47:19.722Z,90.00
2018-08-14T23:49:54.021Z,90.00
2018-08-14T23:52:28.385Z,90.10
2018-08-14T23:55:02.657Z,89.50
2018-08-14T23:57:37.102Z,89.00
